CDT,Max TemperatureF,Mean TemperatureF,Min TemperatureF,Max Dew PointF,MeanDew PointF,Min DewpointF,Max Humidity, Mean Humidity, Min Humidity, Max Sea Level PressureIn, Mean Sea Level PressureIn, Min Sea Level PressureIn, Max VisibilityMiles, Mean VisibilityMiles, Min VisibilityMiles, Max Wind SpeedMPH, Mean Wind SpeedMPH, Max Gust SpeedMPH,PrecipitationIn, CloudCover, Events, WindDirDegrees
2013-3-1,53,43,33,30,28,26,82,60,38,30.24,30.19,30.13,10,10,1,16,7,23,0.00,3,,357
2013-3-2,48,39,30,30,24,21,82,58,34,30.31,30.27,30.22,10,10,10,17,8,23,0.00,5,,345
2013-3-3,57,41,25,31,27,23,92,62,32,30.30,30.20,30.06,10,9,4,10,4,16,0.00,0,,163
2013-3-4,76,60,43,57,47,32,76,61,46,30.06,29.88,29.76,10,10,10,25,14,40,0.00,2,,181
2013-3-5,66,56,45,61,43,22,87,58,28,30.29,30.03,29.80,10,10,10,29,13,38,T,4,Rain,278
2013-3-6,59,48,37,31,26,21,65,45,24,30.40,30.33,30.28,10,10,10,16,7,21,0.00,0,,10
2013-3-7,61,47,32,35,32,28,89,61,32,30.39,30.31,30.26,10,10,7,8,2,14,0.00,0,,69
2013-3-8,71,54,37,44,36,31,85,56,26,30.33,30.24,30.12,10,10,7,8,2,13,0.00,0,,88
2013-3-9,72,62,52,56,50,39,73,62,51,30.14,30.02,29.91,10,10,7,20,7,29,T,3,,150
2013-3-10,67,57,47,61,54,38,100,83,66,29.98,29.88,29.81,10,8,2,29,8,36,0.40,7,Rain,202
2013-3-11,57,49,40,38,33,30,76,57,38,30.07,30.01,29.96,10,10,10,17,8,23,0.00,1,,302
2013-3-12,66,51,36,37,32,26,89,57,24,30.27,30.18,30.08,10,10,10,13,3,16,0.00,0,,350
2013-3-13,66,53,40,35,28,16,76,46,15,30.46,30.39,30.27,10,10,10,15,6,20,0.00,0,,12
2013-3-14,72,55,38,42,35,30,82,54,25,30.46,30.36,30.25,10,10,10,12,4,17,0.00,0,,198
2013-3-15,79,63,46,53,44,38,76,51,26,30.25,30.14,30.02,10,10,10,20,10,26,0.00,0,,214
2013-3-16,79,68,57,56,53,49,93,64,35,30.03,29.96,29.85,10,10,9,22,13,30,0.00,3,,203
2013-3-17,80,68,55,61,58,53,100,73,45,29.93,29.85,29.72,10,10,9,20,9,29,0.00,2,,186
2013-3-18,82,67,51,64,60,49,93,74,54,30.02,29.81,29.75,10,9,6,23,12,29,0.00,4,,218
2013-3-19,68,55,42,48,39,33,96,63,29,30.15,30.08,30.04,10,10,10,21,9,25,0.00,0,,49
2013-3-20,67,55,42,34,29,23,62,41,20,30.26,30.16,30.09,10,10,10,21,8,31,T,1,Rain,24
2013-3-21,55,49,42,35,27,19,70,49,28,30.10,29.99,29.83,10,10,10,13,5,16,T,4,,82
2013-3-22,55,51,46,51,46,35,93,72,50,29.88,29.83,29.78,10,6,4,16,8,21,0.11,8,Rain,68
2013-3-23,58,54,49,54,50,47,100,90,80,29.86,29.76,29.64,10,6,2,22,7,25,0.08,8,Rain,30
2013-3-24,54,45,36,52,42,28,100,71,41,30.11,29.81,29.64,10,8,0,32,14,41,T,5,Fog,306
2013-3-25,57,45,32,28,22,18,75,50,24,30.36,30.22,30.13,10,10,10,25,13,32,0.00,0,,321
2013-3-26,54,42,30,29,23,20,75,52,28,30.47,30.40,30.35,10,10,10,18,5,25,0.00,0,,324
2013-3-27,63,45,26,33,28,24,92,58,23,30.46,30.36,30.27,10,10,10,10,3,26,0.00,0,,140
2013-3-28,72,52,32,40,34,30,89,57,25,30.37,30.29,30.22,10,10,10,10,2,16,0.00,0,,198
2013-3-29,78,62,45,50,45,39,83,57,31,30.27,30.20,30.14,10,10,10,16,6,24,0.00,4,,205
2013-3-30,68,62,56,63,58,47,97,85,72,30.15,30.06,29.97,10,8,2,18,5,24,0.38,4,Rain-Thunderstorm,199
2013-3-31,67,60,52,63,57,54,100,87,73,30.04,29.97,29.89,10,5,0,35,4,44,0.79,5,Fog-Rain-Thunderstorm,216